sensor_id;sensor_type;location;lat;lon;timestamp;P1;durP1;ratioP1;P2;durP2;ratioP2
22160;SDS011;49035;48.812;11.762;2023-01-08T00:01:07;11.63;;;6.93;;
22160;SDS011;49035;48.812;11.762;2023-01-08T00:03:34;11.80;;;7.57;;
22160;SDS011;49035;48.812;11.762;2023-01-08T00:06:01;12.67;;;8.40;;
22160;SDS011;49035;48.812;11.762;2023-01-08T00:08:29;11.00;;;7.13;;
22160;SDS011;49035;48.812;11.762;2023-01-08T00:10:55;9.97;;;6.50;;
22160;SDS011;49035;48.812;11.762;2023-01-08T00:13:21;10.90;;;7.33;;
22160;SDS011;49035;48.812;11.762;2023-01-08T00:15:46;10.87;;;7.50;;
22160;SDS011;49035;48.812;11.762;2023-01-08T00:18:12;11.77;;;7.20;;
22160;SDS011;49035;48.812;11.762;2023-01-08T00:20:41;10.67;;;7.07;;
22160;SDS011;49035;48.812;11.762;2023-01-08T00:23:14;12.03;;;7.60;;
22160;SDS011;49035;48.812;11.762;2023-01-08T00:25:42;13.47;;;8.30;;
22160;SDS011;49035;48.812;11.762;2023-01-08T00:28:08;12.80;;;8.03;;
22160;SDS011;49035;48.812;11.762;2023-01-08T00:30:33;12.37;;;7.57;;
22160;SDS011;49035;48.812;11.762;2023-01-08T00:32:59;10.37;;;7.27;;
22160;SDS011;49035;48.812;11.762;2023-01-08T00:35:25;12.63;;;8.13;;
22160;SDS011;49035;48.812;11.762;2023-01-08T00:37:50;10.57;;;6.43;;
22160;SDS011;49035;48.812;11.762;2023-01-08T00:40:16;11.40;;;7.70;;
22160;SDS011;49035;48.812;11.762;2023-01-08T00:42:42;10.67;;;7.57;;
22160;SDS011;49035;48.812;11.762;2023-01-08T00:45:08;10.67;;;7.13;;
22160;SDS011;49035;48.812;11.762;2023-01-08T00:47:34;13.53;;;7.53;;
22160;SDS011;49035;48.812;11.762;2023-01-08T00:49:59;12.90;;;7.70;;
22160;SDS011;49035;48.812;11.762;2023-01-08T00:52:25;10.37;;;7.10;;
22160;SDS011;49035;48.812;11.762;2023-01-08T00:54:50;10.97;;;7.50;;
22160;SDS011;49035;48.812;11.762;2023-01-08T00:57:16;12.07;;;7.10;;
22160;SDS011;49035;48.812;11.762;2023-01-08T00:59:42;11.37;;;7.40;;
22160;SDS011;49035;48.812;11.762;2023-01-08T01:02:08;10.87;;;7.20;;
22160;SDS011;49035;48.812;11.762;2023-01-08T01:04:34;10.97;;;6.80;;
22160;SDS011;49035;48.812;11.762;2023-01-08T01:06:59;11.00;;;6.67;;
22160;SDS011;49035;48.812;11.762;2023-01-08T01:09:25;11.73;;;6.53;;
22160;SDS011;49035;48.812;11.762;2023-01-08T01:11:51;10.77;;;7.00;;
22160;SDS011;49035;48.812;11.762;2023-01-08T01:14:16;9.13;;;6.37;;
22160;SDS011;49035;48.812;11.762;2023-01-08T01:16:42;10.43;;;7.03;;
22160;SDS011;49035;48.812;11.762;2023-01-08T01:19:08;11.07;;;6.87;;
22160;SDS011;49035;48.812;11.762;2023-01-08T01:21:33;10.57;;;6.90;;
22160;SDS011;49035;48.812;11.762;2023-01-08T01:24:00;13.30;;;7.73;;
22160;SDS011;49035;48.812;11.762;2023-01-08T01:26:27;10.43;;;6.93;;
22160;SDS011;49035;48.812;11.762;2023-01-08T01:28:54;11.43;;;7.40;;
22160;SDS011;49035;48.812;11.762;2023-01-08T01:31:21;11.83;;;7.80;;
22160;SDS011;49035;48.812;11.762;2023-01-08T01:33:48;11.33;;;7.53;;
22160;SDS011;49035;48.812;11.762;2023-01-08T01:36:14;11.47;;;7.43;;
22160;SDS011;49035;48.812;11.762;2023-01-08T01:38:41;12.17;;;7.87;;
22160;SDS011;49035;48.812;11.762;2023-01-08T01:41:12;11.33;;;8.07;;
22160;SDS011;49035;48.812;11.762;2023-01-08T01:43:49;11.57;;;7.13;;
22160;SDS011;49035;48.812;11.762;2023-01-08T01:49:09;13.70;;;8.47;;
22160;SDS011;49035;48.812;11.762;2023-01-08T01:51:37;10.63;;;7.70;;
22160;SDS011;49035;48.812;11.762;2023-01-08T01:54:07;12.47;;;7.60;;
22160;SDS011;49035;48.812;11.762;2023-01-08T01:56:35;15.13;;;8.90;;
22160;SDS011;49035;48.812;11.762;2023-01-08T01:59:01;16.07;;;8.43;;
22160;SDS011;49035;48.812;11.762;2023-01-08T02:01:28;15.70;;;8.73;;
22160;SDS011;49035;48.812;11.762;2023-01-08T02:03:55;15.93;;;8.70;;
22160;SDS011;49035;48.812;11.762;2023-01-08T02:15:27;14.53;;;8.10;;
22160;SDS011;49035;48.812;11.762;2023-01-08T02:17:42;11.93;;;8.13;;
22160;SDS011;49035;48.812;11.762;2023-01-08T02:20:15;14.33;;;8.37;;
22160;SDS011;49035;48.812;11.762;2023-01-08T02:23:41;12.10;;;7.70;;
22160;SDS011;49035;48.812;11.762;2023-01-08T02:28:40;12.03;;;8.00;;
22160;SDS011;49035;48.812;11.762;2023-01-08T02:31:06;12.43;;;8.33;;
22160;SDS011;49035;48.812;11.762;2023-01-08T02:33:32;11.90;;;7.43;;
22160;SDS011;49035;48.812;11.762;2023-01-08T02:41:40;14.73;;;8.63;;
22160;SDS011;49035;48.812;11.762;2023-01-08T02:44:17;12.50;;;8.13;;
22160;SDS011;49035;48.812;11.762;2023-01-08T02:46:49;13.13;;;7.63;;
22160;SDS011;49035;48.812;11.762;2023-01-08T02:49:16;13.33;;;8.10;;
22160;SDS011;49035;48.812;11.762;2023-01-08T02:51:48;14.77;;;8.60;;
22160;SDS011;49035;48.812;11.762;2023-01-08T02:54:19;13.50;;;9.33;;
22160;SDS011;49035;48.812;11.762;2023-01-08T02:56:50;12.10;;;7.87;;
22160;SDS011;49035;48.812;11.762;2023-01-08T02:59:20;12.67;;;8.43;;
22160;SDS011;49035;48.812;11.762;2023-01-08T03:01:47;11.73;;;7.70;;
22160;SDS011;49035;48.812;11.762;2023-01-08T03:04:17;11.27;;;7.80;;
22160;SDS011;49035;48.812;11.762;2023-01-08T03:06:46;12.43;;;8.47;;
22160;SDS011;49035;48.812;11.762;2023-01-08T03:09:12;11.80;;;7.93;;
22160;SDS011;49035;48.812;11.762;2023-01-08T03:11:41;13.03;;;8.63;;
22160;SDS011;49035;48.812;11.762;2023-01-08T03:14:31;14.73;;;9.23;;
22160;SDS011;49035;48.812;11.762;2023-01-08T03:19:35;14.83;;;8.63;;
22160;SDS011;49035;48.812;11.762;2023-01-08T03:22:07;13.27;;;8.17;;
22160;SDS011;49035;48.812;11.762;2023-01-08T03:24:36;13.30;;;8.63;;
22160;SDS011;49035;48.812;11.762;2023-01-08T03:27:04;15.10;;;8.50;;
22160;SDS011;49035;48.812;11.762;2023-01-08T03:29:33;10.67;;;7.30;;
22160;SDS011;49035;48.812;11.762;2023-01-08T03:32:00;19.03;;;10.37;;
22160;SDS011;49035;48.812;11.762;2023-01-08T03:34:29;15.87;;;10.17;;
22160;SDS011;49035;48.812;11.762;2023-01-08T03:36:57;16.93;;;9.90;;
22160;SDS011;49035;48.812;11.762;2023-01-08T03:40:10;17.97;;;11.30;;
22160;SDS011;49035;48.812;11.762;2023-01-08T03:42:21;14.03;;;8.87;;
22160;SDS011;49035;48.812;11.762;2023-01-08T03:44:49;17.73;;;9.33;;
22160;SDS011;49035;48.812;11.762;2023-01-08T03:47:15;18.67;;;10.43;;
22160;SDS011;49035;48.812;11.762;2023-01-08T03:49:41;16.20;;;9.27;;
22160;SDS011;49035;48.812;11.762;2023-01-08T03:52:08;17.17;;;10.00;;
22160;SDS011;49035;48.812;11.762;2023-01-08T03:54:44;14.87;;;9.30;;
22160;SDS011;49035;48.812;11.762;2023-01-08T03:57:09;14.53;;;9.03;;
22160;SDS011;49035;48.812;11.762;2023-01-08T03:59:35;16.33;;;10.20;;
22160;SDS011;49035;48.812;11.762;2023-01-08T04:02:01;16.83;;;10.90;;
22160;SDS011;49035;48.812;11.762;2023-01-08T04:04:26;18.63;;;9.50;;
22160;SDS011;49035;48.812;11.762;2023-01-08T04:06:52;19.23;;;10.83;;
22160;SDS011;49035;48.812;11.762;2023-01-08T04:09:17;21.47;;;12.17;;
22160;SDS011;49035;48.812;11.762;2023-01-08T04:11:43;19.57;;;10.87;;
22160;SDS011;49035;48.812;11.762;2023-01-08T04:14:08;15.67;;;9.93;;
22160;SDS011;49035;48.812;11.762;2023-01-08T04:16:36;18.53;;;9.53;;
22160;SDS011;49035;48.812;11.762;2023-01-08T04:19:01;17.27;;;9.43;;
22160;SDS011;49035;48.812;11.762;2023-01-08T04:21:27;16.30;;;9.50;;
22160;SDS011;49035;48.812;11.762;2023-01-08T04:23:53;14.90;;;9.73;;
22160;SDS011;49035;48.812;11.762;2023-01-08T04:26:19;17.80;;;11.80;;
22160;SDS011;49035;48.812;11.762;2023-01-08T04:28:44;16.23;;;9.87;;
22160;SDS011;49035;48.812;11.762;2023-01-08T04:31:10;18.97;;;11.20;;
22160;SDS011;49035;48.812;11.762;2023-01-08T04:33:35;18.13;;;11.00;;
22160;SDS011;49035;48.812;11.762;2023-01-08T04:36:01;16.13;;;10.70;;
22160;SDS011;49035;48.812;11.762;2023-01-08T04:38:28;17.77;;;10.37;;
22160;SDS011;49035;48.812;11.762;2023-01-08T04:40:57;15.60;;;10.27;;
22160;SDS011;49035;48.812;11.762;2023-01-08T04:43:24;18.47;;;10.90;;
22160;SDS011;49035;48.812;11.762;2023-01-08T04:45:50;16.53;;;10.07;;
22160;SDS011;49035;48.812;11.762;2023-01-08T04:48:15;20.07;;;11.90;;
22160;SDS011;49035;48.812;11.762;2023-01-08T04:50:41;19.53;;;11.67;;
22160;SDS011;49035;48.812;11.762;2023-01-08T04:53:07;17.77;;;11.60;;
22160;SDS011;49035;48.812;11.762;2023-01-08T04:55:32;20.30;;;10.80;;
22160;SDS011;49035;48.812;11.762;2023-01-08T04:57:58;18.70;;;10.90;;
22160;SDS011;49035;48.812;11.762;2023-01-08T05:00:24;20.70;;;11.63;;
22160;SDS011;49035;48.812;11.762;2023-01-08T05:02:49;20.40;;;10.80;;
22160;SDS011;49035;48.812;11.762;2023-01-08T05:05:15;20.43;;;11.20;;
22160;SDS011;49035;48.812;11.762;2023-01-08T05:07:41;18.53;;;11.37;;
22160;SDS011;49035;48.812;11.762;2023-01-08T05:10:06;21.33;;;12.63;;
22160;SDS011;49035;48.812;11.762;2023-01-08T05:12:32;23.20;;;11.90;;
22160;SDS011;49035;48.812;11.762;2023-01-08T05:14:58;21.37;;;11.57;;
22160;SDS011;49035;48.812;11.762;2023-01-08T05:17:23;20.63;;;12.37;;
22160;SDS011;49035;48.812;11.762;2023-01-08T05:19:49;22.67;;;12.70;;
22160;SDS011;49035;48.812;11.762;2023-01-08T05:22:14;21.27;;;12.00;;
22160;SDS011;49035;48.812;11.762;2023-01-08T05:24:40;21.00;;;12.50;;
22160;SDS011;49035;48.812;11.762;2023-01-08T05:27:05;18.37;;;11.47;;
22160;SDS011;49035;48.812;11.762;2023-01-08T05:29:31;24.00;;;12.40;;
22160;SDS011;49035;48.812;11.762;2023-01-08T05:31:57;19.13;;;11.60;;
22160;SDS011;49035;48.812;11.762;2023-01-08T05:34:22;21.10;;;12.47;;
22160;SDS011;49035;48.812;11.762;2023-01-08T05:36:48;24.40;;;12.87;;
22160;SDS011;49035;48.812;11.762;2023-01-08T05:39:13;22.53;;;11.97;;
22160;SDS011;49035;48.812;11.762;2023-01-08T05:41:39;21.07;;;11.83;;
22160;SDS011;49035;48.812;11.762;2023-01-08T05:44:04;18.63;;;11.47;;
22160;SDS011;49035;48.812;11.762;2023-01-08T05:46:30;21.93;;;11.90;;
22160;SDS011;49035;48.812;11.762;2023-01-08T05:48:56;17.93;;;11.13;;
22160;SDS011;49035;48.812;11.762;2023-01-08T05:51:21;18.73;;;10.47;;
22160;SDS011;49035;48.812;11.762;2023-01-08T05:53:47;16.80;;;10.20;;
22160;SDS011;49035;48.812;11.762;2023-01-08T05:56:13;16.87;;;10.20;;
22160;SDS011;49035;48.812;11.762;2023-01-08T05:58:38;16.43;;;10.33;;
22160;SDS011;49035;48.812;11.762;2023-01-08T06:01:05;18.60;;;11.33;;
22160;SDS011;49035;48.812;11.762;2023-01-08T06:03:33;17.53;;;10.80;;
22160;SDS011;49035;48.812;11.762;2023-01-08T06:05:59;19.60;;;11.67;;
22160;SDS011;49035;48.812;11.762;2023-01-08T06:08:26;18.63;;;11.50;;
22160;SDS011;49035;48.812;11.762;2023-01-08T06:10:53;17.03;;;10.73;;
22160;SDS011;49035;48.812;11.762;2023-01-08T06:13:19;23.27;;;11.43;;
22160;SDS011;49035;48.812;11.762;2023-01-08T06:15:44;19.87;;;11.23;;
22160;SDS011;49035;48.812;11.762;2023-01-08T06:18:10;17.67;;;10.60;;
22160;SDS011;49035;48.812;11.762;2023-01-08T06:20:38;16.43;;;10.43;;
22160;SDS011;49035;48.812;11.762;2023-01-08T06:23:04;19.87;;;11.53;;
22160;SDS011;49035;48.812;11.762;2023-01-08T06:25:29;19.77;;;10.67;;
22160;SDS011;49035;48.812;11.762;2023-01-08T06:27:55;17.87;;;10.60;;
22160;SDS011;49035;48.812;11.762;2023-01-08T06:30:21;18.50;;;10.10;;
22160;SDS011;49035;48.812;11.762;2023-01-08T06:32:46;18.77;;;11.07;;
22160;SDS011;49035;48.812;11.762;2023-01-08T06:35:12;17.30;;;10.43;;
22160;SDS011;49035;48.812;11.762;2023-01-08T06:37:37;17.70;;;10.30;;
22160;SDS011;49035;48.812;11.762;2023-01-08T06:40:03;18.80;;;11.20;;
22160;SDS011;49035;48.812;11.762;2023-01-08T06:42:29;17.47;;;10.03;;
22160;SDS011;49035;48.812;11.762;2023-01-08T06:44:54;17.13;;;10.10;;
22160;SDS011;49035;48.812;11.762;2023-01-08T06:47:20;14.27;;;9.30;;
22160;SDS011;49035;48.812;11.762;2023-01-08T06:49:46;16.77;;;9.90;;
22160;SDS011;49035;48.812;11.762;2023-01-08T06:52:11;18.13;;;9.03;;
22160;SDS011;49035;48.812;11.762;2023-01-08T06:54:37;18.57;;;11.17;;
22160;SDS011;49035;48.812;11.762;2023-01-08T06:57:02;15.37;;;9.43;;
22160;SDS011;49035;48.812;11.762;2023-01-08T06:59:28;18.33;;;9.10;;
22160;SDS011;49035;48.812;11.762;2023-01-08T07:01:53;15.43;;;10.40;;
22160;SDS011;49035;48.812;11.762;2023-01-08T07:04:19;16.27;;;10.60;;
22160;SDS011;49035;48.812;11.762;2023-01-08T07:06:45;18.10;;;11.23;;
22160;SDS011;49035;48.812;11.762;2023-01-08T07:09:11;18.40;;;11.07;;
22160;SDS011;49035;48.812;11.762;2023-01-08T07:11:38;16.77;;;9.53;;
22160;SDS011;49035;48.812;11.762;2023-01-08T07:14:04;15.70;;;10.37;;
22160;SDS011;49035;48.812;11.762;2023-01-08T07:16:29;20.13;;;11.80;;
22160;SDS011;49035;48.812;11.762;2023-01-08T07:18:55;19.30;;;10.40;;
22160;SDS011;49035;48.812;11.762;2023-01-08T07:21:21;16.47;;;11.17;;
22160;SDS011;49035;48.812;11.762;2023-01-08T07:23:48;21.60;;;13.00;;
22160;SDS011;49035;48.812;11.762;2023-01-08T07:26:13;18.53;;;11.33;;
22160;SDS011;49035;48.812;11.762;2023-01-08T07:28:39;19.60;;;12.80;;
22160;SDS011;49035;48.812;11.762;2023-01-08T07:31:06;22.30;;;12.43;;
22160;SDS011;49035;48.812;11.762;2023-01-08T07:33:31;23.47;;;13.10;;
22160;SDS011;49035;48.812;11.762;2023-01-08T07:35:57;23.07;;;12.87;;
22160;SDS011;49035;48.812;11.762;2023-01-08T07:38:23;21.07;;;14.13;;
22160;SDS011;49035;48.812;11.762;2023-01-08T07:40:49;23.73;;;13.57;;
22160;SDS011;49035;48.812;11.762;2023-01-08T07:43:14;21.57;;;13.20;;
22160;SDS011;49035;48.812;11.762;2023-01-08T07:45:40;23.97;;;14.33;;
22160;SDS011;49035;48.812;11.762;2023-01-08T07:48:06;23.70;;;14.07;;
22160;SDS011;49035;48.812;11.762;2023-01-08T07:50:35;23.27;;;13.87;;
22160;SDS011;49035;48.812;11.762;2023-01-08T07:53:01;25.27;;;14.83;;
22160;SDS011;49035;48.812;11.762;2023-01-08T07:55:28;32.83;;;16.40;;
22160;SDS011;49035;48.812;11.762;2023-01-08T07:57:54;23.53;;;14.20;;
22160;SDS011;49035;48.812;11.762;2023-01-08T08:00:20;28.20;;;15.43;;
22160;SDS011;49035;48.812;11.762;2023-01-08T08:02:46;31.03;;;15.43;;
22160;SDS011;49035;48.812;11.762;2023-01-08T08:05:12;29.60;;;17.30;;
22160;SDS011;49035;48.812;11.762;2023-01-08T08:07:37;29.43;;;16.43;;
22160;SDS011;49035;48.812;11.762;2023-01-08T08:10:03;30.50;;;17.30;;
22160;SDS011;49035;48.812;11.762;2023-01-08T08:12:29;31.70;;;17.43;;
22160;SDS011;49035;48.812;11.762;2023-01-08T08:14:55;52.83;;;29.47;;
22160;SDS011;49035;48.812;11.762;2023-01-08T08:17:21;40.40;;;24.57;;
22160;SDS011;49035;48.812;11.762;2023-01-08T08:19:46;35.20;;;19.40;;
22160;SDS011;49035;48.812;11.762;2023-01-08T08:22:12;37.90;;;22.57;;
22160;SDS011;49035;48.812;11.762;2023-01-08T08:24:38;31.37;;;18.33;;
22160;SDS011;49035;48.812;11.762;2023-01-08T08:27:04;35.27;;;19.73;;
22160;SDS011;49035;48.812;11.762;2023-01-08T08:29:30;39.33;;;20.87;;
22160;SDS011;49035;48.812;11.762;2023-01-08T08:31:55;39.20;;;21.53;;
22160;SDS011;49035;48.812;11.762;2023-01-08T08:34:21;35.27;;;18.40;;
22160;SDS011;49035;48.812;11.762;2023-01-08T08:36:47;33.50;;;19.80;;
22160;SDS011;49035;48.812;11.762;2023-01-08T08:39:13;40.90;;;20.60;;
22160;SDS011;49035;48.812;11.762;2023-01-08T08:41:39;34.53;;;18.70;;
22160;SDS011;49035;48.812;11.762;2023-01-08T08:44:06;37.53;;;18.80;;
22160;SDS011;49035;48.812;11.762;2023-01-08T08:46:32;32.60;;;17.07;;
22160;SDS011;49035;48.812;11.762;2023-01-08T08:48:58;30.37;;;17.67;;
22160;SDS011;49035;48.812;11.762;2023-01-08T08:51:23;29.63;;;16.33;;
22160;SDS011;49035;48.812;11.762;2023-01-08T08:53:49;25.37;;;15.20;;
22160;SDS011;49035;48.812;11.762;2023-01-08T08:56:15;28.27;;;17.50;;
22160;SDS011;49035;48.812;11.762;2023-01-08T08:58:41;27.50;;;16.90;;
22160;SDS011;49035;48.812;11.762;2023-01-08T09:01:06;32.43;;;17.67;;
22160;SDS011;49035;48.812;11.762;2023-01-08T09:03:32;29.40;;;17.47;;
22160;SDS011;49035;48.812;11.762;2023-01-08T09:05:58;28.87;;;17.57;;
22160;SDS011;49035;48.812;11.762;2023-01-08T09:08:24;32.97;;;19.77;;
22160;SDS011;49035;48.812;11.762;2023-01-08T09:10:50;35.80;;;19.17;;
22160;SDS011;49035;48.812;11.762;2023-01-08T09:13:15;36.20;;;20.17;;
22160;SDS011;49035;48.812;11.762;2023-01-08T09:15:41;37.60;;;20.87;;
22160;SDS011;49035;48.812;11.762;2023-01-08T09:18:07;45.37;;;26.40;;
22160;SDS011;49035;48.812;11.762;2023-01-08T09:20:32;44.87;;;24.90;;
22160;SDS011;49035;48.812;11.762;2023-01-08T09:22:58;42.00;;;22.33;;
22160;SDS011;49035;48.812;11.762;2023-01-08T09:25:25;38.87;;;22.67;;
22160;SDS011;49035;48.812;11.762;2023-01-08T09:28:01;39.70;;;23.03;;
22160;SDS011;49035;48.812;11.762;2023-01-08T09:30:29;43.63;;;23.53;;
22160;SDS011;49035;48.812;11.762;2023-01-08T09:32:58;39.43;;;22.63;;
22160;SDS011;49035;48.812;11.762;2023-01-08T09:35:25;42.03;;;24.33;;
22160;SDS011;49035;48.812;11.762;2023-01-08T09:37:51;44.63;;;25.50;;
22160;SDS011;49035;48.812;11.762;2023-01-08T09:40:17;39.63;;;22.03;;
22160;SDS011;49035;48.812;11.762;2023-01-08T09:42:45;42.60;;;23.13;;
22160;SDS011;49035;48.812;11.762;2023-01-08T09:45:29;40.70;;;22.17;;
22160;SDS011;49035;48.812;11.762;2023-01-08T09:47:57;42.70;;;21.97;;
22160;SDS011;49035;48.812;11.762;2023-01-08T09:50:26;41.23;;;23.47;;
22160;SDS011;49035;48.812;11.762;2023-01-08T09:52:53;47.07;;;24.87;;
22160;SDS011;49035;48.812;11.762;2023-01-08T09:55:19;47.50;;;25.27;;
22160;SDS011;49035;48.812;11.762;2023-01-08T09:57:45;45.07;;;25.20;;
22160;SDS011;49035;48.812;11.762;2023-01-08T10:00:13;48.67;;;28.97;;
22160;SDS011;49035;48.812;11.762;2023-01-08T10:02:39;52.00;;;27.50;;
22160;SDS011;49035;48.812;11.762;2023-01-08T10:05:10;47.33;;;26.10;;
22160;SDS011;49035;48.812;11.762;2023-01-08T10:07:41;49.20;;;28.07;;
22160;SDS011;49035;48.812;11.762;2023-01-08T10:10:40;48.67;;;26.53;;
22160;SDS011;49035;48.812;11.762;2023-01-08T10:13:00;45.80;;;25.97;;
22160;SDS011;49035;48.812;11.762;2023-01-08T10:15:26;54.73;;;27.07;;
22160;SDS011;49035;48.812;11.762;2023-01-08T10:18:00;58.50;;;28.80;;
22160;SDS011;49035;48.812;11.762;2023-01-08T10:20:28;51.43;;;28.93;;
22160;SDS011;49035;48.812;11.762;2023-01-08T10:22:55;45.67;;;25.63;;
22160;SDS011;49035;48.812;11.762;2023-01-08T10:25:25;49.17;;;27.87;;
22160;SDS011;49035;48.812;11.762;2023-01-08T10:27:59;43.40;;;24.93;;
22160;SDS011;49035;48.812;11.762;2023-01-08T10:32:56;45.83;;;26.63;;
22160;SDS011;49035;48.812;11.762;2023-01-08T10:35:30;45.30;;;26.43;;
22160;SDS011;49035;48.812;11.762;2023-01-08T10:37:58;47.10;;;26.07;;
22160;SDS011;49035;48.812;11.762;2023-01-08T10:40:26;37.37;;;22.73;;
22160;SDS011;49035;48.812;11.762;2023-01-08T10:43:03;38.00;;;22.57;;
22160;SDS011;49035;48.812;11.762;2023-01-08T10:45:31;37.63;;;22.23;;
22160;SDS011;49035;48.812;11.762;2023-01-08T10:47:58;34.83;;;20.73;;
22160;SDS011;49035;48.812;11.762;2023-01-08T10:50:28;29.53;;;19.47;;
22160;SDS011;49035;48.812;11.762;2023-01-08T10:52:59;27.33;;;16.80;;
22160;SDS011;49035;48.812;11.762;2023-01-08T10:55:31;21.93;;;15.50;;
22160;SDS011;49035;48.812;11.762;2023-01-08T10:58:04;23.73;;;15.53;;
22160;SDS011;49035;48.812;11.762;2023-01-08T11:00:39;20.40;;;15.13;;
22160;SDS011;49035;48.812;11.762;2023-01-08T11:03:27;19.60;;;14.33;;
22160;SDS011;49035;48.812;11.762;2023-01-08T11:05:55;19.73;;;13.00;;
22160;SDS011;49035;48.812;11.762;2023-01-08T11:08:22;15.40;;;12.27;;
22160;SDS011;49035;48.812;11.762;2023-01-08T11:10:56;17.17;;;11.97;;
22160;SDS011;49035;48.812;11.762;2023-01-08T11:13:23;16.10;;;11.50;;
22160;SDS011;49035;48.812;11.762;2023-01-08T11:16:03;13.10;;;10.47;;
22160;SDS011;49035;48.812;11.762;2023-01-08T11:18:33;17.07;;;11.30;;
22160;SDS011;49035;48.812;11.762;2023-01-08T11:21:15;19.70;;;13.17;;
22160;SDS011;49035;48.812;11.762;2023-01-08T11:23:43;17.63;;;12.93;;
22160;SDS011;49035;48.812;11.762;2023-01-08T11:26:19;17.90;;;13.00;;
22160;SDS011;49035;48.812;11.762;2023-01-08T11:28:55;18.33;;;12.97;;
22160;SDS011;49035;48.812;11.762;2023-01-08T11:34:27;16.83;;;12.03;;
22160;SDS011;49035;48.812;11.762;2023-01-08T11:39:33;15.87;;;11.93;;
22160;SDS011;49035;48.812;11.762;2023-01-08T11:42:05;18.37;;;12.50;;
22160;SDS011;49035;48.812;11.762;2023-01-08T11:44:49;15.80;;;12.10;;
22160;SDS011;49035;48.812;11.762;2023-01-08T11:47:59;18.73;;;11.73;;
22160;SDS011;49035;48.812;11.762;2023-01-08T12:02:07;17.27;;;12.47;;
22160;SDS011;49035;48.812;11.762;2023-01-08T12:04:57;17.90;;;12.77;;
22160;SDS011;49035;48.812;11.762;2023-01-08T12:07:47;15.20;;;11.70;;
22160;SDS011;49035;48.812;11.762;2023-01-08T12:10:37;12.63;;;9.73;;
22160;SDS011;49035;48.812;11.762;2023-01-08T12:29:47;11.10;;;8.80;;
22160;SDS011;49035;48.812;11.762;2023-01-08T12:32:41;11.03;;;8.67;;
22160;SDS011;49035;48.812;11.762;2023-01-08T12:35:16;12.23;;;8.80;;
22160;SDS011;49035;48.812;11.762;2023-01-08T12:37:50;15.73;;;9.20;;
22160;SDS011;49035;48.812;11.762;2023-01-08T12:40:32;12.37;;;9.27;;
22160;SDS011;49035;48.812;11.762;2023-01-08T12:43:01;17.33;;;9.03;;
22160;SDS011;49035;48.812;11.762;2023-01-08T12:45:37;11.90;;;9.60;;
22160;SDS011;49035;48.812;11.762;2023-01-08T12:48:09;14.53;;;10.93;;
22160;SDS011;49035;48.812;11.762;2023-01-08T12:51:03;15.00;;;10.87;;
22160;SDS011;49035;48.812;11.762;2023-01-08T13:01:49;17.70;;;12.10;;
22160;SDS011;49035;48.812;11.762;2023-01-08T13:04:21;17.83;;;11.83;;
22160;SDS011;49035;48.812;11.762;2023-01-08T13:06:51;15.07;;;10.47;;
22160;SDS011;49035;48.812;11.762;2023-01-08T13:09:27;16.27;;;11.70;;
22160;SDS011;49035;48.812;11.762;2023-01-08T13:11:54;17.20;;;12.57;;
22160;SDS011;49035;48.812;11.762;2023-01-08T13:14:21;16.33;;;12.17;;
22160;SDS011;49035;48.812;11.762;2023-01-08T13:16:59;17.53;;;12.77;;
22160;SDS011;49035;48.812;11.762;2023-01-08T13:19:32;19.20;;;13.50;;
22160;SDS011;49035;48.812;11.762;2023-01-08T13:22:15;16.30;;;11.93;;
22160;SDS011;49035;48.812;11.762;2023-01-08T13:24:51;17.73;;;12.30;;
22160;SDS011;49035;48.812;11.762;2023-01-08T13:27:31;15.73;;;11.70;;
22160;SDS011;49035;48.812;11.762;2023-01-08T13:29:57;17.13;;;11.70;;
22160;SDS011;49035;48.812;11.762;2023-01-08T13:32:23;14.33;;;10.90;;
22160;SDS011;49035;48.812;11.762;2023-01-08T13:35:17;15.73;;;11.17;;
22160;SDS011;49035;48.812;11.762;2023-01-08T13:37:47;13.70;;;10.73;;
22160;SDS011;49035;48.812;11.762;2023-01-08T13:43:11;14.10;;;10.83;;
22160;SDS011;49035;48.812;11.762;2023-01-08T13:45:43;16.93;;;11.07;;
22160;SDS011;49035;48.812;11.762;2023-01-08T13:48:19;14.50;;;11.50;;
22160;SDS011;49035;48.812;11.762;2023-01-08T13:50:49;16.13;;;12.10;;
22160;SDS011;49035;48.812;11.762;2023-01-08T13:53:15;16.20;;;11.93;;
22160;SDS011;49035;48.812;11.762;2023-01-08T13:55:45;16.73;;;12.00;;
22160;SDS011;49035;48.812;11.762;2023-01-08T13:58:23;15.77;;;11.60;;
22160;SDS011;49035;48.812;11.762;2023-01-08T14:00:51;16.20;;;11.20;;
22160;SDS011;49035;48.812;11.762;2023-01-08T14:05:52;16.27;;;11.93;;
22160;SDS011;49035;48.812;11.762;2023-01-08T14:11:18;17.73;;;12.00;;
22160;SDS011;49035;48.812;11.762;2023-01-08T14:13:45;16.97;;;11.47;;
22160;SDS011;49035;48.812;11.762;2023-01-08T14:16:12;16.07;;;12.13;;
22160;SDS011;49035;48.812;11.762;2023-01-08T14:18:39;15.90;;;12.03;;
22160;SDS011;49035;48.812;11.762;2023-01-08T14:21:06;15.90;;;11.77;;
22160;SDS011;49035;48.812;11.762;2023-01-08T14:23:36;14.97;;;11.90;;
22160;SDS011;49035;48.812;11.762;2023-01-08T14:26:22;17.63;;;12.97;;
22160;SDS011;49035;48.812;11.762;2023-01-08T14:28:59;16.73;;;12.13;;
22160;SDS011;49035;48.812;11.762;2023-01-08T14:31:26;21.40;;;14.73;;
22160;SDS011;49035;48.812;11.762;2023-01-08T14:33:53;16.60;;;12.83;;
22160;SDS011;49035;48.812;11.762;2023-01-08T14:36:21;17.80;;;11.97;;
22160;SDS011;49035;48.812;11.762;2023-01-08T14:38:47;17.60;;;12.80;;
22160;SDS011;49035;48.812;11.762;2023-01-08T14:41:25;18.40;;;13.60;;
22160;SDS011;49035;48.812;11.762;2023-01-08T14:44:18;19.37;;;14.67;;
22160;SDS011;49035;48.812;11.762;2023-01-08T14:46:44;21.40;;;13.03;;
22160;SDS011;49035;48.812;11.762;2023-01-08T14:49:29;17.47;;;13.23;;
22160;SDS011;49035;48.812;11.762;2023-01-08T14:51:58;19.80;;;13.47;;
22160;SDS011;49035;48.812;11.762;2023-01-08T14:54:26;21.03;;;14.60;;
22160;SDS011;49035;48.812;11.762;2023-01-08T14:57:03;22.77;;;16.10;;
22160;SDS011;49035;48.812;11.762;2023-01-08T14:59:33;19.73;;;14.83;;
22160;SDS011;49035;48.812;11.762;2023-01-08T15:02:04;19.80;;;13.83;;
22160;SDS011;49035;48.812;11.762;2023-01-08T15:04:42;21.20;;;15.47;;
22160;SDS011;49035;48.812;11.762;2023-01-08T15:07:15;19.73;;;14.27;;
22160;SDS011;49035;48.812;11.762;2023-01-08T15:09:56;21.27;;;14.93;;
22160;SDS011;49035;48.812;11.762;2023-01-08T15:12:26;20.77;;;15.60;;
22160;SDS011;49035;48.812;11.762;2023-01-08T15:14:54;23.13;;;15.20;;
22160;SDS011;49035;48.812;11.762;2023-01-08T15:17:21;21.27;;;15.47;;
22160;SDS011;49035;48.812;11.762;2023-01-08T15:19:50;22.60;;;15.27;;
22160;SDS011;49035;48.812;11.762;2023-01-08T15:22:19;23.13;;;15.63;;
22160;SDS011;49035;48.812;11.762;2023-01-08T15:24:56;26.03;;;15.47;;
22160;SDS011;49035;48.812;11.762;2023-01-08T15:27:23;25.93;;;17.27;;
22160;SDS011;49035;48.812;11.762;2023-01-08T15:29:50;22.23;;;15.20;;
22160;SDS011;49035;48.812;11.762;2023-01-08T15:32:29;22.57;;;15.53;;
22160;SDS011;49035;48.812;11.762;2023-01-08T15:35:01;23.60;;;16.43;;
22160;SDS011;49035;48.812;11.762;2023-01-08T15:37:40;23.07;;;15.43;;
22160;SDS011;49035;48.812;11.762;2023-01-08T15:40:06;20.80;;;14.73;;